Time;durP1;ratioP1;P1;durP2;ratioP2;P2;SDS_P1;SDS_P2;PMS_P1;PMS_P2;Temp;Humidity;BMP_temperature;BMP_pressure;BME280_temperature;BME280_humidity;BME280_pressure;Samples;Min_cycle;Max_cycle;Signal;HPM_P1;HPM_P2
2022/03/02 00:01:38;;;;;;;;;;;10.20;99.90;;;;;;5044539;28;19932;-92
2022/03/02 00:04:05;;;;;;;;;;;7.20;99.90;;;;;;5044638;28;19936;-92
2022/03/02 00:06:33;;;;;;;;;;;7.40;99.90;;;;;;5043990;28;19925;-92
2022/03/02 00:09:01;;;;;;;;;;;7.40;99.90;;;;;;5043896;28;19925;-93
2022/03/02 00:11:29;;;;;;;;;;;7.70;99.90;;;;;;5041054;28;19932;-93
2022/03/02 00:14:00;;;;;;;;;;;7.20;99.90;;;;;;5043571;28;19929;-92
2022/03/02 00:16:28;;;;;;;;;;;6.70;99.90;;;;;;5045195;28;20252;-93
2022/03/02 00:18:57;;;;;;;;;;;7.00;99.90;;;;;;5044893;28;19925;-92
2022/03/02 00:21:33;;;;;;;;;;;7.20;99.90;;;;;;5032884;28;19926;-92
2022/03/02 00:24:03;;;;;;;;;;;7.10;99.90;;;;;;5025015;28;19953;-93
2022/03/02 00:26:32;;;;;;;;;;;8.30;99.90;;;;;;5025616;28;19953;-92
2022/03/02 00:29:02;;;;;;;;;;;7.20;99.90;;;;;;5024813;28;19926;-92
2022/03/02 00:31:29;;;;;;;;;;;7.10;99.90;;;;;;5023968;28;19985;-92
2022/03/02 00:34:05;;;;;;;;;;;7.20;99.90;;;;;;5023705;28;19932;-92
2022/03/02 00:36:36;;;;;;;;;;;7.60;99.90;;;;;;5002206;28;19925;-93
2022/03/02 00:39:20;;;;;;;;;;;7.10;99.90;;;;;;5004981;28;19993;-93
2022/03/02 00:41:51;;;;;;;;;;;7.30;99.90;;;;;;5000529;28;19949;-92
2022/03/02 00:44:21;;;;;;;;;;;7.20;99.90;;;;;;4986343;28;19961;-91
2022/03/02 00:46:48;;;;;;;;;;;8.00;99.90;;;;;;4988843;28;20036;-91
2022/03/02 00:49:17;;;;;;;;;;;7.10;99.90;;;;;;4988152;28;19926;-91
2022/03/02 00:55:04;;;;;;;;;;;7.60;99.90;;;;;;4994010;28;20406;-91
2022/03/02 00:57:34;;;;;;;;;;;7.70;99.90;;;;;;5002760;28;19930;-92
2022/03/02 01:00:10;;;;;;;;;;;10.70;99.90;;;;;;5002172;28;19930;-92
2022/03/02 01:02:39;;;;;;;;;;;7.10;99.90;;;;;;5002239;28;19941;-92
2022/03/02 01:05:07;;;;;;;;;;;7.80;99.90;;;;;;5002621;28;19932;-92
2022/03/02 01:07:37;;;;;;;;;;;7.30;99.90;;;;;;5002775;28;19926;-92
2022/03/02 01:10:10;;;;;;;;;;;7.30;99.90;;;;;;5001867;28;19998;-92
2022/03/02 01:12:45;;;;;;;;;;;8.60;99.90;;;;;;5003851;28;20382;-92
2022/03/02 01:15:27;;;;;;;;;;;7.30;99.90;;;;;;5004560;28;19925;-92
2022/03/02 01:18:00;;;;;;;;;;;7.00;99.90;;;;;;5004748;23;19926;-92
2022/03/02 01:20:28;;;;;;;;;;;7.20;99.90;;;;;;4983378;28;19930;-92
2022/03/02 01:22:55;;;;;;;;;;;9.20;99.90;;;;;;4967482;28;19926;-92
2022/03/02 01:25:23;;;;;;;;;;;6.70;99.90;;;;;;4964880;29;19930;-93
2022/03/02 01:27:52;;;;;;;;;;;8.60;99.90;;;;;;4963296;29;19994;-92
2022/03/02 01:30:25;;;;;;;;;;;7.50;99.90;;;;;;4964400;29;19926;-92
2022/03/02 01:32:52;;;;;;;;;;;7.30;99.90;;;;;;4968075;28;19958;-93
2022/03/02 01:35:24;;;;;;;;;;;7.60;99.90;;;;;;4963397;29;19934;-93
2022/03/02 01:37:52;;;;;;;;;;;7.20;99.90;;;;;;4963304;29;20231;-92
2022/03/02 01:40:21;;;;;;;;;;;7.00;99.90;;;;;;4962686;29;19926;-93
2022/03/02 01:42:48;;;;;;;;;;;7.50;99.90;;;;;;4967074;28;19965;-93
2022/03/02 01:45:18;;;;;;;;;;;10.20;99.90;;;;;;4963586;28;19930;-92
2022/03/02 01:47:57;;;;;;;;;;;8.50;99.90;;;;;;4963164;29;19941;-93
2022/03/02 01:50:24;;;;;;;;;;;7.50;99.90;;;;;;5195171;23;20021;-93
2022/03/02 01:52:52;;;;;;;;;;;7.20;99.90;;;;;;5000620;28;19926;-92
2022/03/02 01:55:22;;;;;;;;;;;8.10;99.90;;;;;;5001256;28;20021;-92
2022/03/02 01:57:49;;;;;;;;;;;6.90;99.90;;;;;;5001624;28;19930;-92
2022/03/02 02:00:19;;;;;;;;;;;7.30;99.90;;;;;;5002821;28;19926;-92
2022/03/02 02:02:56;;;;;;;;;;;7.00;99.90;;;;;;5002227;28;19950;-93
2022/03/02 02:05:25;;;;;;;;;;;7.60;99.90;;;;;;5001655;28;19953;-92
2022/03/02 02:07:54;;;;;;;;;;;7.50;99.90;;;;;;4991393;28;19926;-92
2022/03/02 02:10:27;;;;;;;;;;;6.20;99.90;;;;;;4981719;28;19981;-91
2022/03/02 02:12:56;;;;;;;;;;;9.20;99.90;;;;;;4982075;28;19969;-92
2022/03/02 02:15:32;;;;;;;;;;;6.20;99.90;;;;;;4981913;28;19985;-92
2022/03/02 02:18:06;;;;;;;;;;;7.20;99.90;;;;;;4993321;28;19929;-92
2022/03/02 02:20:58;;;;;;;;;;;8.80;99.90;;;;;;4999807;28;20017;-93
2022/03/02 02:26:21;;;;;;;;;;;7.00;99.90;;;;;;4998921;28;20354;-93
2022/03/02 02:28:50;;;;;;;;;;;6.60;99.90;;;;;;5003019;28;19932;-93
2022/03/02 02:31:24;;;;;;;;;;;8.20;99.90;;;;;;5002883;28;19933;-93
2022/03/02 02:33:54;;;;;;;;;;;6.80;99.90;;;;;;5002348;28;20008;-92
2022/03/02 02:36:23;;;;;;;;;;;6.80;99.90;;;;;;5001719;28;19933;-92
2022/03/02 02:38:55;;;;;;;;;;;7.40;99.90;;;;;;4987669;28;19926;-93
2022/03/02 02:41:25;;;;;;;;;;;6.80;99.90;;;;;;4982908;28;19926;-92
2022/03/02 02:43:54;;;;;;;;;;;7.40;99.90;;;;;;5005742;23;19929;-92
2022/03/02 02:46:22;;;;;;;;;;;7.70;99.90;;;;;;5006359;28;19930;-93
2022/03/02 02:48:52;;;;;;;;;;;7.80;99.90;;;;;;5009708;28;19926;-93
2022/03/02 02:51:23;;;;;;;;;;;7.40;99.90;;;;;;5025196;28;19925;-93
2022/03/02 02:53:54;;;;;;;;;;;7.90;99.90;;;;;;5005093;28;19965;-94
2022/03/02 02:56:44;;;;;;;;;;;7.70;99.90;;;;;;5004653;28;19929;-94
2022/03/02 02:59:14;;;;;;;;;;;8.30;99.90;;;;;;5007478;28;19929;-94
2022/03/02 03:01:52;;;;;;;;;;;12.00;99.90;;;;;;5015133;28;19935;-93
2022/03/02 03:04:26;;;;;;;;;;;7.40;99.90;;;;;;5029218;28;19925;-94
2022/03/02 03:06:57;;;;;;;;;;;7.20;99.90;;;;;;5162443;23;19933;-94
2022/03/02 03:09:24;;;;;;;;;;;7.70;99.90;;;;;;5010803;28;19926;-94
2022/03/02 03:12:09;;;;;;;;;;;7.70;99.90;;;;;;5008863;28;19926;-93
2022/03/02 03:15:17;;;;;;;;;;;5.60;99.90;;;;;;5067763;23;19929;-94
2022/03/02 03:18:14;;;;;;;;;;;7.40;99.90;;;;;;5045392;28;19992;-94
2022/03/02 03:20:44;;;;;;;;;;;7.40;99.90;;;;;;5048746;28;19932;-94
2022/03/02 03:26:30;;;;;;;;;;;7.70;99.90;;;;;;5048407;28;19980;-93
2022/03/02 03:29:00;;;;;;;;;;;7.10;99.90;;;;;;5045497;28;19936;-93
2022/03/02 03:31:33;;;;;;;;;;;8.40;99.90;;;;;;5048397;28;20073;-93
2022/03/02 03:34:27;;;;;;;;;;;7.20;99.90;;;;;;5029227;28;19925;-93
2022/03/02 03:36:56;;;;;;;;;;;8.00;99.90;;;;;;5026859;28;19932;-94
2022/03/02 03:39:25;;;;;;;;;;;6.80;99.90;;;;;;5027671;28;20419;-93
2022/03/02 03:42:00;;;;;;;;;;;9.30;99.90;;;;;;5028094;28;20016;-93
2022/03/02 03:44:41;;;;;;;;;;;7.20;99.90;;;;;;5022520;23;19957;-92
2022/03/02 03:47:21;;;;;;;;;;;9.30;99.90;;;;;;5008750;28;20022;-93
2022/03/02 03:49:53;;;;;;;;;;;9.90;99.90;;;;;;5007738;28;19932;-93
2022/03/02 03:52:27;;;;;;;;;;;8.00;99.90;;;;;;5007505;28;19997;-93
2022/03/02 03:55:16;;;;;;;;;;;8.10;99.90;;;;;;5008125;28;20311;-93
2022/03/02 04:03:12;;;;;;;;;;;8.30;99.90;;;;;;5049182;23;20002;-93
2022/03/02 04:05:59;;;;;;;;;;;7.80;99.90;;;;;;5026377;28;19925;-92
2022/03/02 04:08:33;;;;;;;;;;;4.80;99.90;;;;;;5047102;23;19929;-92
2022/03/02 04:11:11;;;;;;;;;;;7.70;99.90;;;;;;5008210;28;19926;-93
2022/03/02 04:13:50;;;;;;;;;;;8.90;99.90;;;;;;5068023;23;19926;-93
2022/03/02 04:16:33;;;;;;;;;;;7.50;99.90;;;;;;5026238;28;19932;-93
2022/03/02 04:19:12;;;;;;;;;;;7.90;99.90;;;;;;5026346;28;20443;-93
2022/03/02 04:21:51;;;;;;;;;;;7.80;99.90;;;;;;5026413;28;19971;-93
2022/03/02 04:24:37;;;;;;;;;;;7.90;99.90;;;;;;5027141;28;19925;-93
2022/03/02 04:27:12;;;;;;;;;;;8.30;99.90;;;;;;5027375;28;19925;-93
2022/03/02 04:29:45;;;;;;;;;;;8.10;99.90;;;;;;5093362;23;19926;-94
2022/03/02 04:32:13;;;;;;;;;;;6.80;99.90;;;;;;5027725;28;19926;-93
2022/03/02 04:34:55;;;;;;;;;;;9.90;99.90;;;;;;5026688;28;19992;-94
2022/03/02 04:37:26;;;;;;;;;;;8.10;99.90;;;;;;5026515;28;19926;-93
2022/03/02 04:42:38;;;;;;;;;;;7.80;99.90;;;;;;5023362;28;19925;-93
2022/03/02 04:45:13;;;;;;;;;;;10.40;99.90;;;;;;5008641;28;19925;-92
2022/03/02 04:47:42;;;;;;;;;;;7.80;99.90;;;;;;5026822;28;19929;-92
2022/03/02 04:50:16;;;;;;;;;;;7.90;99.90;;;;;;5008875;28;19949;-91
2022/03/02 04:52:44;;;;;;;;;;;7.80;99.90;;;;;;5011817;28;19967;-91
2022/03/02 04:55:13;;;;;;;;;;;8.00;99.90;;;;;;5010348;28;19929;-92
2022/03/02 04:57:49;;;;;;;;;;;7.80;99.90;;;;;;5006615;28;20017;-93
2022/03/02 05:00:23;;;;;;;;;;;7.10;99.90;;;;;;5012941;28;19933;-94
2022/03/02 05:03:00;;;;;;;;;;;7.80;99.90;;;;;;5026750;28;19929;-93
2022/03/02 05:05:35;;;;;;;;;;;5.50;99.90;;;;;;5006466;28;19953;-93
2022/03/02 05:08:11;;;;;;;;;;;6.50;99.90;;;;;;5006904;28;19995;-93
2022/03/02 05:10:47;;;;;;;;;;;7.70;99.90;;;;;;5005937;28;19941;-94
2022/03/02 05:13:22;;;;;;;;;;;7.70;99.90;;;;;;5005745;28;19926;-94
2022/03/02 05:16:06;;;;;;;;;;;9.40;99.90;;;;;;4988049;28;19930;-93
2022/03/02 05:18:41;;;;;;;;;;;5.80;99.90;;;;;;5006759;28;19957;-94
2022/03/02 05:21:10;;;;;;;;;;;7.40;99.90;;;;;;5006168;28;19926;-92
2022/03/02 05:23:43;;;;;;;;;;;7.10;99.90;;;;;;5008257;28;19926;-92
2022/03/02 05:26:23;;;;;;;;;;;7.80;99.90;;;;;;5009996;28;19925;-92
2022/03/02 05:28:50;;;;;;;;;;;9.00;99.90;;;;;;5025175;28;19989;-93
2022/03/02 05:36:54;;;;;;;;;;;7.60;99.90;;;;;;5108145;23;19949;-93
2022/03/02 05:39:25;;;;;;;;;;;8.10;99.90;;;;;;5024664;28;19964;-92
2022/03/02 05:41:53;;;;;;;;;;;7.90;99.90;;;;;;5024602;28;19926;-93
2022/03/02 05:44:21;;;;;;;;;;;7.70;99.90;;;;;;5023834;28;19955;-93
2022/03/02 05:46:51;;;;;;;;;;;7.70;99.90;;;;;;5093071;23;19998;-93
2022/03/02 05:49:21;;;;;;;;;;;8.00;99.90;;;;;;5004367;28;19940;-93
2022/03/02 05:51:49;;;;;;;;;;;8.10;99.90;;;;;;5004085;28;19930;-93
2022/03/02 05:54:32;;;;;;;;;;;7.60;99.90;;;;;;5003508;28;19953;-93
2022/03/02 05:57:18;;;;;;;;;;;;;;;;;;;;;
2022/03/02 06:02:26;;;;;;;;;;;7.60;99.90;;;;;;5155849;23;19926;-93
2022/03/02 06:05:04;;;;;;;;;;;8.80;99.90;;;;;;5006740;28;19932;-93
2022/03/02 06:07:35;;;;;;;;;;;8.00;99.90;;;;;;5023947;28;19925;-93
2022/03/02 06:10:04;;;;;;;;;;;9.90;99.90;;;;;;5036913;22;19925;-92
2022/03/02 06:15:46;;;;;;;;;;;7.60;99.90;;;;;;5001532;28;19936;-92
2022/03/02 06:18:25;;;;;;;;;;;8.10;99.90;;;;;;5002712;28;20020;-93
2022/03/02 06:20:59;;;;;;;;;;;6.60;99.90;;;;;;4995404;28;19933;-94
2022/03/02 06:23:35;;;;;;;;;;;8.90;99.90;;;;;;5002832;28;19926;-94
2022/03/02 06:26:08;;;;;;;;;;;6.70;99.90;;;;;;4998636;28;19926;-93
2022/03/02 06:28:40;;;;;;;;;;;10.40;99.90;;;;;;4983853;28;20357;-95
2022/03/02 06:34:34;;;;;;;;;;;9.80;99.90;;;;;;4977921;28;20423;-93
2022/03/02 06:37:06;;;;;;;;;;;10.10;99.90;;;;;;5006785;28;19925;-91
2022/03/02 06:39:41;;;;;;;;;;;8.20;99.90;;;;;;5010434;28;19925;-92
2022/03/02 06:42:16;;;;;;;;;;;8.70;99.90;;;;;;5022300;28;19926;-92
2022/03/02 06:45:03;;;;;;;;;;;8.40;99.90;;;;;;5029177;28;20012;-92
2022/03/02 06:47:46;;;;;;;;;;;7.80;99.90;;;;;;5011188;28;19926;-91
2022/03/02 06:50:32;;;;;;;;;;;7.60;99.90;;;;;;5010165;28;20009;-93
2022/03/02 06:53:08;;;;;;;;;;;5.90;99.90;;;;;;4991039;28;19930;-91
2022/03/02 06:55:44;;;;;;;;;;;7.40;99.90;;;;;;4997581;28;19964;-91
2022/03/02 06:58:21;;;;;;;;;;;9.80;99.90;;;;;;5010329;28;19933;-92
2022/03/02 07:00:57;;;;;;;;;;;8.70;99.90;;;;;;5008903;28;19933;-92
2022/03/02 07:03:33;;;;;;;;;;;10.10;99.90;;;;;;4989604;28;19926;-93
2022/03/02 07:09:06;;;;;;;;;;;7.10;99.90;;;;;;4946256;29;19990;-92
2022/03/02 07:11:35;;;;;;;;;;;7.70;99.90;;;;;;4975866;28;19926;-91
2022/03/02 07:14:02;;;;;;;;;;;8.10;99.90;;;;;;4998530;28;19949;-91
2022/03/02 07:16:29;;;;;;;;;;;8.30;99.90;;;;;;5024438;28;19956;-92
2022/03/02 07:19:03;;;;;;;;;;;7.90;99.90;;;;;;5127918;23;19929;-94
2022/03/02 07:21:39;;;;;;;;;;;7.80;99.90;;;;;;5028272;28;19926;-93
2022/03/02 07:27:05;;;;;;;;;;;7.00;99.90;;;;;;4971333;29;20005;-92
2022/03/02 07:29:37;;;;;;;;;;;7.60;99.90;;;;;;4971227;29;19927;-92
2022/03/02 07:32:13;;;;;;;;;;;5.70;99.90;;;;;;4970423;29;19927;-93
2022/03/02 07:40:57;;;;;;;;;;;7.70;99.90;;;;;;5029346;28;19925;-94
2022/03/02 07:43:24;;;;;;;;;;;7.40;99.90;;;;;;5029573;28;19960;-93
2022/03/02 07:46:05;;;;;;;;;;;7.90;99.90;;;;;;5021196;28;19926;-93
2022/03/02 07:51:35;;;;;;;;;;;8.10;99.90;;;;;;5029028;28;19936;-94
2022/03/02 07:54:06;;;;;;;;;;;8.00;99.90;;;;;;5029598;28;20439;-94
2022/03/02 07:56:45;;;;;;;;;;;7.60;99.90;;;;;;5023770;28;20402;-94
2022/03/02 07:59:18;;;;;;;;;;;8.00;99.90;;;;;;5029342;28;19948;-92
2022/03/02 08:02:00;;;;;;;;;;;9.50;99.90;;;;;;5011660;28;19992;-93
2022/03/02 08:08:10;;;;;;;;;;;8.00;99.90;;;;;;4966683;29;19926;-94
2022/03/02 08:10:42;;;;;;;;;;;8.00;99.90;;;;;;5006282;28;19926;-91
2022/03/02 08:16:08;;;;;;;;;;;7.60;99.90;;;;;;5021353;28;19944;-90
2022/03/02 08:18:35;;;;;;;;;;;8.30;99.90;;;;;;5116658;23;19925;-89
2022/03/02 08:38:20;;;;;;;;;;;7.60;99.90;;;;;;4132493;23;19925;-91
2022/03/02 08:40:47;;;;;;;;;;;7.70;99.90;;;;;;5027357;28;19948;-89
2022/03/02 08:43:15;;;;;;;;;;;7.70;99.90;;;;;;5022503;28;19926;-91
2022/03/02 08:48:59;;;;;;;;;;;8.40;99.90;;;;;;5020502;28;19937;-94
2022/03/02 08:58:00;;;;;;;;;;;8.60;99.90;;;;;;4922865;29;19946;-90
2022/03/02 09:00:27;;;;;;;;;;;8.20;99.90;;;;;;4938276;29;19927;-91
2022/03/02 09:02:58;;;;;;;;;;;7.90;99.90;;;;;;4871101;29;19954;-90
2022/03/02 09:05:29;;;;;;;;;;;7.80;99.90;;;;;;4926176;29;20724;-89
2022/03/02 09:08:08;;;;;;;;;;;7.90;99.90;;;;;;4916903;29;19927;-90
2022/03/02 09:19:38;;;;;;;;;;;;;;;;;;;;;
2022/03/02 09:22:17;;;;;;;;;;;8.30;99.90;;;;;;5010941;28;19926;-91
2022/03/02 09:24:53;;;;;;;;;;;8.40;99.90;;;;;;5012651;28;19940;-92
2022/03/02 09:27:27;;;;;;;;;;;8.00;99.90;;;;;;5014760;28;19940;-92
2022/03/02 09:30:03;;;;;;;;;;;7.90;99.90;;;;;;5007538;28;20384;-91
2022/03/02 09:32:31;;;;;;;;;;;8.70;99.90;;;;;;5007393;28;19933;-89
2022/03/02 09:35:14;;;;;;;;;;;7.90;99.90;;;;;;5013269;28;19926;-92
2022/03/02 09:38:13;;;;;;;;;;;8.20;99.90;;;;;;4997788;28;19929;-93
2022/03/02 09:40:44;;;;;;;;;;;8.40;99.90;;;;;;5004797;28;20578;-88
2022/03/02 09:43:30;;;;;;;;;;;9.30;99.90;;;;;;4983353;28;20009;-92
2022/03/02 09:58:11;;;;;;;;;;;;;;;;;;;;;
2022/03/02 10:03:45;;;;;;;;;;;8.40;99.90;;;;;;5008941;23;20303;-87
2022/03/02 10:12:03;;;;;;;;;;;8.90;99.90;;;;;;4949090;29;19948;-90
2022/03/02 10:18:18;;;;;;;;;;;;;;;;;;;;;
2022/03/02 10:35:00;;;;;;;;;;;8.60;99.90;;;;;;5026942;23;19965;-88
2022/03/02 10:43:55;;;;;;;;;;;;;;;;;;;;;
2022/03/02 11:21:58;;;;;;;;;;;8.90;99.90;;;;;;3922452;23;19926;-92
2022/03/02 11:24:27;;;;;;;;;;;6.90;99.90;;;;;;4997556;28;19926;-91
2022/03/02 11:29:45;;;;;;;;;;;8.90;99.90;;;;;;5000850;28;19972;-92
2022/03/02 11:32:23;;;;;;;;;;;8.80;99.90;;;;;;5000499;28;19941;-91
2022/03/02 11:34:53;;;;;;;;;;;9.40;99.90;;;;;;4974263;22;19937;-90
2022/03/02 11:43:18;;;;;;;;;;;8.90;99.90;;;;;;4955304;28;21360;-91
2022/03/02 11:55:05;;;;;;;;;;;10.90;99.90;;;;;;4947419;28;19934;-92
2022/03/02 11:57:43;;;;;;;;;;;9.00;99.90;;;;;;4956097;28;20293;-92
2022/03/02 12:03:39;;;;;;;;;;;9.60;99.90;;;;;;4993190;23;19949;-93
2022/03/02 12:06:20;;;;;;;;;;;;;;;;;;;;;
2022/03/02 12:09:01;;;;;;;;;;;9.40;99.90;;;;;;4996993;28;21783;-92
2022/03/02 12:12:09;;;;;;;;;;;9.00;99.90;;;;;;5000005;28;19926;-91
2022/03/02 12:20:51;;;;;;;;;;;9.30;99.90;;;;;;4877730;29;20355;-91
2022/03/02 12:27:00;;;;;;;;;;;;;;;;;;;;;
2022/03/02 12:29:27;;;;;;;;;;;12.20;99.90;;;;;;4817754;29;19928;-90
2022/03/02 12:32:31;;;;;;;;;;;;;;;;;;;;;
2022/03/02 12:35:09;;;;;;;;;;;10.20;99.90;;;;;;4920857;29;19927;-91
2022/03/02 12:43:46;;;;;;;;;;;9.40;99.90;;;;;;4881518;29;19980;-89
2022/03/02 12:49:33;;;;;;;;;;;9.90;99.90;;;;;;4955643;29;19926;-91
2022/03/02 13:12:46;;;;;;;;;;;11.70;99.90;;;;;;4889005;29;19999;-92
2022/03/02 13:24:33;;;;;;;;;;;9.80;99.90;;;;;;5301710;23;19932;-91
2022/03/02 13:51:31;;;;;;;;;;;9.60;99.90;;;;;;4997559;26;20028;-92
2022/03/02 14:00:24;;;;;;;;;;;11.10;99.90;;;;;;4902263;29;19930;-91
2022/03/02 14:03:27;;;;;;;;;;;9.40;99.90;;;;;;4918097;29;19950;-90
2022/03/02 14:09:02;;;;;;;;;;;10.30;99.90;;;;;;4800884;29;19928;-93
2022/03/02 14:11:38;;;;;;;;;;;9.20;99.90;;;;;;4877424;29;20059;-91
2022/03/02 14:17:16;;;;;;;;;;;9.80;99.90;;;;;;4915067;23;19926;-92
2022/03/02 14:19:51;;;;;;;;;;;9.70;99.90;;;;;;4979532;28;19941;-91
2022/03/02 14:25:50;;;;;;;;;;;;;;;;;;;;;
2022/03/02 14:28:19;;;;;;;;;;;10.50;99.90;;;;;;4954475;28;20391;-89
2022/03/02 14:30:50;;;;;;;;;;;8.90;99.90;;;;;;4969421;28;19970;-91
2022/03/02 14:33:50;;;;;;;;;;;;;;;;;;;;;
2022/03/02 14:36:40;;;;;;;;;;;10.00;99.90;;;;;;4972156;28;20395;-89
2022/03/02 14:39:12;;;;;;;;;;;9.90;99.90;;;;;;4966359;28;20017;-92
2022/03/02 14:41:44;;;;;;;;;;;10.20;99.90;;;;;;4948582;28;20068;-92
2022/03/02 14:44:33;;;;;;;;;;;9.10;99.90;;;;;;4940957;28;20045;-89
2022/03/02 14:47:13;;;;;;;;;;;9.40;99.90;;;;;;4933696;28;20137;-92
2022/03/02 15:10:34;;;;;;;;;;;9.40;99.90;;;;;;5427679;23;20698;-88
2022/03/02 15:16:12;;;;;;;;;;;9.80;99.90;;;;;;4995537;28;19933;-92
2022/03/02 15:18:55;;;;;;;;;;;9.80;99.90;;;;;;4982529;28;19937;-89
2022/03/02 15:21:27;;;;;;;;;;;9.90;99.90;;;;;;4995962;28;19925;-92
2022/03/02 15:26:37;;;;;;;;;;;9.70;99.90;;;;;;5008531;28;19925;-90
2022/03/02 15:31:54;;;;;;;;;;;9.40;99.90;;;;;;5004322;28;20368;-86
2022/03/02 15:34:24;;;;;;;;;;;9.30;99.90;;;;;;5003667;28;19926;-85
2022/03/02 15:36:52;;;;;;;;;;;9.40;99.90;;;;;;4997727;28;20495;-86
2022/03/02 15:39:43;;;;;;;;;;;10.00;99.90;;;;;;5008267;28;19929;-86
2022/03/02 15:42:40;;;;;;;;;;;9.90;99.90;;;;;;5009846;28;19940;-85
2022/03/02 15:45:13;;;;;;;;;;;9.80;99.90;;;;;;5011444;28;19929;-86
2022/03/02 15:47:41;;;;;;;;;;;9.80;99.90;;;;;;5013758;28;19926;-90
2022/03/02 15:50:17;;;;;;;;;;;8.70;99.90;;;;;;5015160;28;19929;-90
2022/03/02 15:52:47;;;;;;;;;;;9.40;99.90;;;;;;5019236;23;19957;-91
2022/03/02 15:55:48;;;;;;;;;;;;;;;;;;;;;
2022/03/02 15:58:20;;;;;;;;;;;9.60;99.90;;;;;;4999281;28;20317;-91
2022/03/02 16:00:50;;;;;;;;;;;9.40;99.90;;;;;;4996885;28;20024;-89
2022/03/02 16:06:24;;;;;;;;;;;9.40;99.90;;;;;;5013189;23;19934;-89
2022/03/02 16:14:59;;;;;;;;;;;9.80;99.90;;;;;;4989076;28;20036;-89
2022/03/02 16:17:51;;;;;;;;;;;9.30;99.90;;;;;;4996134;28;19986;-90
2022/03/02 16:20:22;;;;;;;;;;;9.30;99.90;;;;;;4992970;28;20406;-88
2022/03/02 16:22:51;;;;;;;;;;;9.50;99.90;;;;;;4991083;28;19933;-90
2022/03/02 16:25:24;;;;;;;;;;;9.50;99.90;;;;;;4989500;28;21247;-89
2022/03/02 16:28:17;;;;;;;;;;;8.50;99.90;;;;;;4983758;28;19932;-91
2022/03/02 16:30:54;;;;;;;;;;;10.20;99.90;;;;;;4923574;29;19934;-90
2022/03/02 16:36:38;;;;;;;;;;;9.20;99.90;;;;;;4754126;30;19926;-93
2022/03/02 16:39:07;;;;;;;;;;;8.90;99.90;;;;;;4865891;29;19950;-88
2022/03/02 16:41:53;;;;;;;;;;;;;;;;;;;;;
2022/03/02 16:44:20;;;;;;;;;;;9.50;99.90;;;;;;4987548;28;20647;-86
2022/03/02 16:46:50;;;;;;;;;;;9.40;99.90;;;;;;4982933;28;19926;-86
2022/03/02 16:49:19;;;;;;;;;;;9.10;99.90;;;;;;4990756;28;19981;-87
2022/03/02 16:51:50;;;;;;;;;;;9.90;99.90;;;;;;4987133;28;19969;-89
2022/03/02 16:54:23;;;;;;;;;;;9.50;99.90;;;;;;4991836;28;19976;-87
2022/03/02 16:56:52;;;;;;;;;;;8.90;99.90;;;;;;4985591;28;19925;-88
2022/03/02 16:59:23;;;;;;;;;;;9.20;99.90;;;;;;4995770;28;19934;-87
2022/03/02 17:01:50;;;;;;;;;;;9.00;99.90;;;;;;4991110;28;19941;-89
2022/03/02 17:04:19;;;;;;;;;;;9.50;99.90;;;;;;4991151;28;19930;-88
2022/03/02 17:06:47;;;;;;;;;;;9.20;99.90;;;;;;4994047;28;19969;-89
2022/03/02 17:09:14;;;;;;;;;;;10.70;99.90;;;;;;4991041;28;19930;-86
2022/03/02 17:11:52;;;;;;;;;;;9.00;99.90;;;;;;4976838;28;19933;-88
2022/03/02 17:14:28;;;;;;;;;;;9.10;99.90;;;;;;4991021;28;20006;-86
2022/03/02 17:17:10;;;;;;;;;;;8.80;99.90;;;;;;4987741;28;19926;-88
2022/03/02 17:19:39;;;;;;;;;;;9.10;99.90;;;;;;4987939;28;19930;-91
2022/03/02 17:22:27;;;;;;;;;;;9.80;99.90;;;;;;4986572;28;19934;-93
2022/03/02 17:24:54;;;;;;;;;;;9.60;99.90;;;;;;4987344;28;19930;-90
2022/03/02 17:27:28;;;;;;;;;;;9.00;99.90;;;;;;4997546;28;19985;-91
2022/03/02 17:30:24;;;;;;;;;;;11.50;99.90;;;;;;5001053;28;19934;-92
2022/03/02 17:44:35;;;;;;;;;;;8.90;99.90;;;;;;4903846;26;19926;-92
2022/03/02 17:47:53;;;;;;;;;;;9.40;99.90;;;;;;4986658;23;20667;-90
2022/03/02 17:56:40;;;;;;;;;;;9.20;99.90;;;;;;4983380;28;19933;-90
2022/03/02 17:59:12;;;;;;;;;;;9.40;99.90;;;;;;4983421;28;19981;-93
2022/03/02 18:08:01;;;;;;;;;;;9.60;99.90;;;;;;4921395;29;19934;-92
2022/03/02 18:10:55;;;;;;;;;;;10.20;99.90;;;;;;4929080;29;19915;-94
2022/03/02 18:22:37;;;;;;;;;;;9.20;99.90;;;;;;4727466;30;19938;-89
2022/03/02 18:25:04;;;;;;;;;;;9.40;99.90;;;;;;4817848;29;19913;-89
2022/03/02 18:27:49;;;;;;;;;;;6.70;99.90;;;;;;4847800;29;20044;-92
2022/03/02 18:33:24;;;;;;;;;;;9.30;99.90;;;;;;5002097;28;19937;-93
2022/03/02 18:48:20;;;;;;;;;;;10.40;99.90;;;;;;4929046;29;19927;-92
2022/03/02 18:54:16;;;;;;;;;;;;;;;;;;;;;
2022/03/02 19:03:14;;;;;;;;;;;8.70;99.90;;;;;;4982567;28;19957;-93
2022/03/02 19:06:01;;;;;;;;;;;8.30;99.90;;;;;;4978954;28;19986;-93
2022/03/02 19:08:42;;;;;;;;;;;11.00;99.90;;;;;;4999312;28;19932;-92
2022/03/02 19:20:15;;;;;;;;;;;9.20;99.90;;;;;;4989101;28;20013;-91
2022/03/02 19:26:15;;;;;;;;;;;8.70;99.90;;;;;;4992224;28;20404;-91
2022/03/02 19:29:12;;;;;;;;;;;8.60;99.90;;;;;;4973795;28;20642;-93
2022/03/02 19:32:03;;;;;;;;;;;8.70;99.90;;;;;;4973080;28;19929;-92
2022/03/02 19:46:23;;;;;;;;;;;8.70;99.90;;;;;;4991510;28;20392;-93
2022/03/02 19:52:18;;;;;;;;;;;8.80;99.90;;;;;;5002649;28;19925;-93
2022/03/02 19:55:16;;;;;;;;;;;10.00;99.90;;;;;;5005589;28;20395;-92
2022/03/02 19:57:48;;;;;;;;;;;9.30;99.90;;;;;;5004497;28;19926;-93
2022/03/02 20:00:16;;;;;;;;;;;8.50;99.90;;;;;;5004512;28;20380;-93
2022/03/02 20:02:52;;;;;;;;;;;8.40;99.90;;;;;;5009188;28;19936;-91
2022/03/02 20:05:32;;;;;;;;;;;7.20;99.90;;;;;;5010301;23;19933;-94
2022/03/02 20:11:20;;;;;;;;;;;8.60;99.90;;;;;;4984740;28;19932;-94
2022/03/02 20:13:52;;;;;;;;;;;8.70;99.90;;;;;;5005770;23;19929;-93
2022/03/02 20:16:24;;;;;;;;;;;8.20;99.90;;;;;;5004869;28;19989;-93
2022/03/02 20:19:03;;;;;;;;;;;8.40;99.90;;;;;;4996073;28;19926;-93
2022/03/02 20:21:41;;;;;;;;;;;;;;;;;;;;;
2022/03/02 20:24:29;;;;;;;;;;;8.00;99.90;;;;;;5004758;28;19993;-93
2022/03/02 20:26:59;;;;;;;;;;;7.50;99.90;;;;;;4998650;28;19926;-93
2022/03/02 20:29:43;;;;;;;;;;;10.10;99.90;;;;;;5011384;23;19969;-93
2022/03/02 20:32:26;;;;;;;;;;;8.30;99.90;;;;;;5000973;28;19964;-94
2022/03/02 20:35:02;;;;;;;;;;;8.10;99.90;;;;;;5006697;28;19925;-94
2022/03/02 20:37:49;;;;;;;;;;;;;;;;;;;;;
2022/03/02 20:43:32;;;;;;;;;;;8.50;99.90;;;;;;4970237;28;19930;-92
2022/03/02 20:46:13;;;;;;;;;;;7.60;99.90;;;;;;4986708;28;20006;-93
2022/03/02 20:48:51;;;;;;;;;;;8.70;99.90;;;;;;4986759;28;19938;-92
2022/03/02 20:54:35;;;;;;;;;;;7.60;99.90;;;;;;4985213;28;19985;-91
2022/03/02 20:59:55;;;;;;;;;;;8.90;99.90;;;;;;4974823;28;19932;-91
2022/03/02 21:02:36;;;;;;;;;;;10.30;99.90;;;;;;4984469;28;19930;-92
2022/03/02 21:05:14;;;;;;;;;;;9.10;99.90;;;;;;4987106;28;19926;-92
2022/03/02 21:07:55;;;;;;;;;;;;;;;;;;;;;
2022/03/02 21:10:28;;;;;;;;;;;8.30;99.90;;;;;;4985792;28;19995;-93
2022/03/02 21:13:06;;;;;;;;;;;7.20;99.90;;;;;;4977951;28;20280;-93
2022/03/02 21:15:46;;;;;;;;;;;8.20;99.90;;;;;;4986467;28;19964;-92
2022/03/02 21:18:24;;;;;;;;;;;8.20;99.90;;;;;;4986195;28;19926;-93
2022/03/02 21:21:23;;;;;;;;;;;;;;;;;;;;;
2022/03/02 21:23:58;;;;;;;;;;;8.60;99.90;;;;;;4985837;28;19930;-93
2022/03/02 21:26:30;;;;;;;;;;;8.40;99.90;;;;;;4978727;28;19937;-92
2022/03/02 21:34:50;;;;;;;;;;;9.30;99.90;;;;;;4964716;28;19973;-92
2022/03/02 21:43:00;;;;;;;;;;;7.30;99.90;;;;;;4963836;28;19927;-92
2022/03/02 21:46:01;;;;;;;;;;;8.30;99.90;;;;;;4965399;29;19927;-93
2022/03/02 21:48:40;;;;;;;;;;;8.40;99.90;;;;;;4964354;29;19949;-92
2022/03/02 21:51:35;;;;;;;;;;;9.50;99.90;;;;;;4964489;28;19926;-93
2022/03/02 21:54:09;;;;;;;;;;;8.50;99.90;;;;;;4959011;29;19974;-93
2022/03/02 21:57:09;;;;;;;;;;;8.40;99.90;;;;;;4964413;29;19926;-93
2022/03/02 21:59:42;;;;;;;;;;;8.20;99.90;;;;;;4960214;28;19926;-94
2022/03/02 22:02:15;;;;;;;;;;;10.40;99.90;;;;;;4965757;29;19926;-94
2022/03/02 22:04:53;;;;;;;;;;;8.30;99.90;;;;;;4965347;29;19957;-92
2022/03/02 22:07:30;;;;;;;;;;;8.20;99.90;;;;;;4964489;29;19982;-92
2022/03/02 22:09:59;;;;;;;;;;;8.60;99.90;;;;;;4956607;29;19926;-92
2022/03/02 22:15:44;;;;;;;;;;;;;;;;;;;;;
2022/03/02 22:18:19;;;;;;;;;;;8.80;99.90;;;;;;4964267;29;19934;-92
2022/03/02 22:21:01;;;;;;;;;;;10.30;99.90;;;;;;4974293;28;19972;-93
2022/03/02 22:23:31;;;;;;;;;;;8.50;99.90;;;;;;4984488;28;19930;-93
2022/03/02 22:26:00;;;;;;;;;;;8.40;99.90;;;;;;4984249;28;19933;-93
2022/03/02 22:28:39;;;;;;;;;;;;;;;;;;;;;
2022/03/02 22:31:09;;;;;;;;;;;9.50;99.90;;;;;;4984654;28;19933;-92
2022/03/02 22:33:49;;;;;;;;;;;8.10;99.90;;;;;;4983247;28;19934;-92
2022/03/02 22:36:50;;;;;;;;;;;8.10;99.90;;;;;;4981867;28;20062;-93
2022/03/02 22:42:23;;;;;;;;;;;8.50;99.90;;;;;;4982405;28;19985;-92
2022/03/02 22:45:20;;;;;;;;;;;8.60;99.90;;;;;;4984185;28;20297;-91
2022/03/02 22:51:03;;;;;;;;;;;8.20;99.90;;;;;;5002957;28;20415;-92
2022/03/02 22:53:46;;;;;;;;;;;10.30;99.90;;;;;;4945632;29;19990;-93
2022/03/02 22:56:29;;;;;;;;;;;8.30;99.90;;;;;;4944927;29;20369;-92
2022/03/02 22:59:16;;;;;;;;;;;9.90;99.90;;;;;;4923275;29;19995;-93